Local Weather
17097
page-template-default,page,page-id-17097,bridge-core-1.0.4,ajax_fade,page_not_loaded,,hide_top_bar_on_mobile_header,qode-child-theme-ver-1.0.0,qode-theme-ver-18.0.9,qode-theme-bridge,qode_header_in_grid,wpb-js-composer js-comp-ver-4.11.2.1,vc_responsive
 

LOCAL WEATHER

METAR & TAF for EGTK Oxford

Available data for EGTK from the past hour
OXFORD
Metar
EGTK 251320Z 17007KT 4600 BR OVC005 06/06 Q1017

13:20 UTC

Wind: 170° 7kt

Visibility: 4600 m

Sky: OVC 500 ft

Temp: 6 deg C / 42.8 deg F

Dewpoint: 6 deg C / 42.8 deg F

Pressure: 1017 hPa

TAF
TAF EGTK 251108Z 2512/2521 18006KT 6000 BKN010 TEMPO 2512/2521 3000 -DZ BR BKN007 PROB30 TEMPO 2513/2518 BKN004 PROB40 TEMPO 2518/2521 BKN003